Aviation Digital Data Service (ADDS)

Output produced by METARs form (0111 UTC 24 August 2017)
found at http://www.aviationweather.gov/adds/metars/
 
METAR text: KILE 240056Z AUTO 03006KT 10SM -RA SCT065 BKN095 23/23 A2994 RMK AO2 SLP145 T02330228 PNO $
Conditions at: KILE (KILLEEN MUNI , TX, US) observed 0056 UTC 24 August 2017
Temperature: 23.3°C (74°F)
Dewpoint: 22.8°C (73°F) [RH = 97%]
Pressure (altimeter): 29.94 inches Hg (1014.0 mb)
[Sea-level pressure: 1014.5 mb]
Winds: from the NNE (30 degrees) at 7 MPH (6 knots; 3.1 m/s)
Visibility: 10 or more miles (16+ km)
Ceiling: 9500 feet AGL
Clouds: scattered clouds at 6500 feet AGL
broken clouds at 9500 feet AGL
Weather: -RA  (light rain)
SOME DATA ABOVE MAY BE INACCURATE!!!
"$" is an indication the sensor requires maintenance